Dades meteomassalio
Diari Summary for Agost 19, 2017 Units:  English    Metric   Both
« Previous Day
Next Day »
Diari Semanal Mensual Anual Personalitzat
  Maxima: Minima: Mijana:
Temperatura: TemperatureC °F 19.4 °F 24.7 °F
Rosada: DewpointC °F 12.2 °F 13.4 °F
Humitat: Humidity % 31 % 51 %
Velocitat del vent: WindSpeedKMH mph 0.0 mph 10 mph
Racha vent: WindSpeedGustKMH mph - -
Vent:- - West
Pressio: PressurehPa in 977.5 in -
Pluja: 0.0 in    
Historical Graphs
 
 
Tabular Data for Agost 19, 2017
Time Temperature Dew Point Pressure Wind Wind Speed Wind Gust Humidity Rainfall Rate (Hourly) solar Conditions
TemperatureC °F DewpointC °F PressurehPa in Calm     Humidity % HourlyPrecipMM in SolarRadiationWatts/m^2 W/m2 Conditions
00:01 25.1 °F 14.6 °F 1016.5 in WNW 24.1 mph 24.1 mph 52 % 0.0 in 0.0 W/m2 CLR
00:06 25.0 °F 14.4 °F 1016.5 in WSW 12.9 mph 12.9 mph 52 % 0.0 in 0.0 W/m2 CLR
00:11 24.9 °F 14.7 °F 1016.5 in West 22.5 mph 22.5 mph 53 % 0.0 in 0.0 W/m2 CLR
00:16 24.8 °F 14.6 °F 1016.5 in West 14.8 mph 14.8 mph 53 % 0.0 in 0.0 W/m2 CLR
00:21 24.7 °F 14.5 °F 1016.8 in West 11.1 mph 11.1 mph 53 % 0.0 in 0.0 W/m2 CLR
00:26 24.7 °F 14.7 °F 1016.8 in WSW 20.4 mph 20.4 mph 54 % 0.0 in 0.0 W/m2 CLR
00:31 24.6 °F 14.7 °F 1016.8 in West 8.0 mph 8.0 mph 54 % 0.0 in 0.0 W/m2 CLR
00:36 24.6 °F 14.6 °F 1016.8 in Calm     54 % 0.0 in 0.0 W/m2 CLR
00:41 24.5 °F 14.6 °F 1016.8 in West 13.0 mph 13.0 mph 54 % 0.0 in 0.0 W/m2 CLR
00:46 24.5 °F 14.6 °F 1016.8 in SW 9.3 mph 9.3 mph 54 % 0.0 in 0.0 W/m2 CLR
00:51 24.4 °F 14.6 °F 1016.8 in West 13.0 mph 13.0 mph 54 % 0.0 in 0.0 W/m2 CLR
00:56 24.4 °F 14.8 °F 1016.8 in WNW 20.4 mph 20.4 mph 55 % 0.0 in 0.0 W/m2 CLR
01:01 24.3 °F 14.7 °F 1016.8 in WNW 27.8 mph 27.8 mph 55 % 0.0 in 0.0 W/m2 CLR
01:06 24.2 °F 14.6 °F 1016.8 in WSW 7.4 mph 7.4 mph 55 % 0.0 in 0.0 W/m2 CLR
01:11 24.1 °F 14.5 °F 1016.8 in West 20.4 mph 20.4 mph 55 % 0.0 in 0.0 W/m2 CLR
01:16 24.0 °F 14.7 °F 1017.2 in West 25.9 mph 25.9 mph 56 % 0.0 in 0.0 W/m2 CLR
01:21 23.9 °F 14.6 °F 1017.2 in West 18.5 mph 18.5 mph 56 % 0.0 in 0.0 W/m2 CLR
01:26 23.8 °F 14.7 °F 1017.2 in West 14.8 mph 14.8 mph 57 % 0.0 in 0.0 W/m2 CLR
01:31 23.7 °F 14.7 °F 1017.2 in West 22.5 mph 22.5 mph 57 % 0.0 in 0.0 W/m2 CLR
01:36 23.6 °F 14.6 °F 1017.2 in WNW 18.5 mph 18.5 mph 57 % 0.0 in 0.0 W/m2 CLR
01:41 23.6 °F 14.6 °F 1017.2 in WSW 16.7 mph 16.7 mph 57 % 0.0 in 0.0 W/m2 CLR
01:46 23.4 °F 14.7 °F 1017.2 in West 14.8 mph 14.8 mph 58 % 0.0 in 0.0 W/m2 CLR
01:51 23.4 °F 14.7 °F 1017.2 in West 24.1 mph 24.1 mph 58 % 0.0 in 0.0 W/m2 CLR
01:56 23.3 °F 14.6 °F 1017.2 in WSW 18.5 mph 18.5 mph 58 % 0.0 in 0.0 W/m2 CLR
02:01 23.2 °F 14.5 °F 1017.2 in WNW 18.5 mph 18.5 mph 58 % 0.0 in 0.0 W/m2 CLR
02:06 23.1 °F 14.7 °F 1017.5 in SW 5.6 mph 5.6 mph 59 % 0.0 in 0.0 W/m2 CLR
02:11 23.0 °F 14.3 °F 1017.2 in WNW 18.5 mph 18.5 mph 58 % 0.0 in 0.0 W/m2 CLR
02:16 22.9 °F 14.2 °F 1017.5 in West 20.4 mph 20.4 mph 58 % 0.0 in 0.0 W/m2 CLR
02:21 22.8 °F 14.3 °F 1017.5 in West 4.8 mph 4.8 mph 59 % 0.0 in 0.0 W/m2 CLR
02:26 22.7 °F 14.2 °F 1017.5 in WNW 1.9 mph 1.9 mph 59 % 0.0 in 0.0 W/m2 CLR
02:31 22.6 °F 14.1 °F 1017.2 in West 1.9 mph 1.9 mph 59 % 0.0 in 0.0 W/m2 CLR
02:36 22.5 °F 14.1 °F 1017.5 in West 9.3 mph 9.3 mph 59 % 0.0 in 0.0 W/m2 CLR
02:41 22.4 °F 14.1 °F 1017.5 in West 4.8 mph 4.8 mph 59 % 0.0 in 0.0 W/m2 CLR
02:46 22.4 °F 14.0 °F 1017.5 in West 19.3 mph 19.3 mph 59 % 0.0 in 0.0 W/m2 CLR
02:51 22.4 °F 14.0 °F 1017.5 in WNW 7.4 mph 7.4 mph 59 % 0.0 in 0.0 W/m2 CLR
02:56 22.3 °F 13.9 °F 1017.2 in WNW 9.7 mph 9.7 mph 59 % 0.0 in 0.0 W/m2 CLR
03:01 22.2 °F 13.8 °F 1017.2 in West 5.6 mph 5.6 mph 59 % 0.0 in 0.0 W/m2 CLR
03:06 22.2 °F 13.8 °F 1017.2 in Calm     59 % 0.0 in 0.0 W/m2 CLR
03:11 22.1 °F 13.9 °F 1017.2 in West 9.3 mph 9.3 mph 60 % 0.0 in 0.0 W/m2 CLR
03:16 22.0 °F 13.9 °F 1017.2 in Calm     60 % 0.0 in 0.0 W/m2 CLR
03:21 21.9 °F 13.8 °F 1017.2 in Calm     60 % 0.0 in 0.0 W/m2 CLR
03:26 21.9 °F 13.8 °F 1017.2 in Calm     60 % 0.0 in 0.0 W/m2 CLR
03:31 21.8 °F 13.7 °F 1017.2 in WNW 7.4 mph 7.4 mph 60 % 0.0 in 0.0 W/m2 CLR
03:36 21.8 °F 13.7 °F 1017.2 in West 4.8 mph 4.8 mph 60 % 0.0 in 0.0 W/m2 CLR
03:41 21.8 °F 13.4 °F 1017.2 in West 9.7 mph 9.7 mph 59 % 0.0 in 0.0 W/m2 CLR
03:46 21.7 °F 13.3 °F 1017.2 in WNW 13.0 mph 13.0 mph 59 % 0.0 in 0.0 W/m2 CLR
03:51 21.7 °F 13.3 °F 1017.2 in West 11.1 mph 11.1 mph 59 % 0.0 in 0.0 W/m2 CLR
03:56 21.8 °F 13.4 °F 1017.2 in WSW 9.3 mph 9.3 mph 59 % 0.0 in 0.0 W/m2 CLR
04:01 21.7 °F 13.1 °F 1017.2 in West 6.4 mph 6.4 mph 58 % 0.0 in 0.0 W/m2 CLR
04:06 21.7 °F 13.1 °F 1017.2 in West 13.0 mph 13.0 mph 58 % 0.0 in 0.0 W/m2 CLR
04:12 21.7 °F 13.3 °F 1017.2 in WNW 7.4 mph 7.4 mph 59 % 0.0 in 0.0 W/m2 CLR
04:17 21.6 °F 13.3 °F 1017.2 in WNW 5.6 mph 5.6 mph 59 % 0.0 in 0.0 W/m2 CLR
04:22 21.5 °F 13.2 °F 1017.2 in West 5.6 mph 5.6 mph 59 % 0.0 in 0.0 W/m2 CLR
04:27 21.4 °F 13.1 °F 1017.2 in Calm     59 % 0.0 in 0.0 W/m2 CLR
04:32 21.3 °F 13.2 °F 1017.2 in WNW 5.6 mph 5.6 mph 60 % 0.0 in 0.0 W/m2 CLR
04:37 21.3 °F 13.2 °F 1017.2 in West 1.9 mph 1.9 mph 60 % 0.0 in 0.0 W/m2 CLR
04:42 21.3 °F 13.2 °F 1017.2 in West 5.6 mph 5.6 mph 60 % 0.0 in 0.0 W/m2 CLR
04:47 21.2 °F 13.2 °F 1017.2 in West 1.9 mph   60 % 0.0 in 0.0 W/m2 CLR
04:52 21.1 °F 13.1 °F 1017.2 in Calm     60 % 0.0 in 0.0 W/m2 CLR
04:57 21.1 °F 13.0 °F 1017.2 in West 6.4 mph 6.4 mph 60 % 0.0 in 0.0 W/m2 CLR
05:02 21.1 °F 13.0 °F 1017.5 in WSW 9.3 mph 9.3 mph 60 % 0.0 in 0.0 W/m2 CLR
05:07 21.1 °F 13.2 °F 1017.5 in West 3.7 mph 4.2 mph 61 % 0.0 in 0.0 W/m2 CLR
05:13 21.1 °F 13.2 °F 1017.5 in West 11.1 mph 11.1 mph 61 % 0.0 in 0.0 W/m2 CLR
05:18 21.1 °F 13.2 °F 1017.5 in West 18.5 mph 18.5 mph 61 % 0.0 in 0.0 W/m2 CLR
05:22 21.0 °F 13.2 °F 1017.5 in WNW 14.5 mph 14.5 mph 61 % 0.0 in 0.0 W/m2 CLR
05:24 20.9 °F 13.4 °F 1017.5 in NW 22.2 mph 22.2 mph 62 % 0.0 in 0.0 W/m2 CLR
05:27 20.9 °F 13.3 °F 1017.8 in WNW 18.5 mph 18.5 mph 62 % 0.0 in 0.0 W/m2 CLR
05:32 20.8 °F 13.3 °F 1017.8 in WNW 14.8 mph 14.8 mph 62 % 0.0 in 0.0 W/m2 CLR
05:37 20.8 °F 13.3 °F 1017.8 in WSW 7.4 mph 7.4 mph 62 % 0.0 in 0.0 W/m2 CLR
05:42 20.8 °F 13.3 °F 1017.8 in West 19.3 mph 19.3 mph 62 % 0.0 in 0.0 W/m2 CLR
05:47 20.8 °F 13.5 °F 1017.8 in NW 20.4 mph 20.4 mph 63 % 0.0 in 0.0 W/m2 CLR
05:52 20.7 °F 13.4 °F 1017.8 in WNW 24.1 mph 24.1 mph 63 % 0.0 in 0.0 W/m2 CLR
05:57 20.6 °F 13.3 °F 1017.8 in WNW 16.7 mph 16.7 mph 63 % 0.0 in 0.0 W/m2 CLR
06:02 20.5 °F 13.4 °F 1017.8 in West 18.5 mph 18.5 mph 64 % 0.0 in 0.0 W/m2 CLR
06:07 20.4 °F 13.4 °F 1017.8 in WNW 9.7 mph 9.7 mph 64 % 0.0 in 0.0 W/m2 CLR
06:12 20.4 °F 13.3 °F 1017.8 in WSW 18.5 mph 18.5 mph 64 % 0.0 in 0.0 W/m2 CLR
06:17 20.3 °F 13.6 °F 1017.8 in West 5.6 mph 5.6 mph 65 % 0.0 in 0.0 W/m2 CLR
06:22 20.3 °F 13.2 °F 1017.8 in WSW 5.6 mph 5.6 mph 64 % 0.0 in 0.0 W/m2 CLR
06:27 20.2 °F 13.4 °F 1017.8 in Calm     65 % 0.0 in 0.0 W/m2 CLR
06:32 20.1 °F 13.3 °F 1017.8 in Calm     65 % 0.0 in 0.0 W/m2 CLR
06:33 20.1 °F 13.3 °F 1017.8 in Calm     65 % 0.0 in 0.0 W/m2 CLR
06:38 19.9 °F 13.4 °F 1018.2 in Calm     66 % 0.0 in 0.0 W/m2 CLR
06:43 19.9 °F 13.3 °F 1018.2 in Calm     66 % 0.0 in 0.0 W/m2 CLR
06:48 19.8 °F 13.3 °F 1018.2 in Calm     66 % 0.0 in 0.0 W/m2 CLR
06:53 19.7 °F 13.2 °F 1018.2 in Calm     66 % 0.0 in 0.0 W/m2 CLR
06:58 19.6 °F 13.3 °F 1018.2 in West 7.4 mph 7.4 mph 67 % 0.0 in 0.0 W/m2 CLR
07:03 19.6 °F 13.3 °F 1018.5 in WSW 3.7 mph 3.7 mph 67 % 0.0 in 0.0 W/m2 OVC
07:08 19.6 °F 13.3 °F 1018.5 in Calm     67 % 0.0 in 0.0 W/m2 OVC
07:13 19.6 °F 13.3 °F 1018.5 in Calm     67 % 0.0 in 0.0 W/m2 OVC
07:18 19.5 °F 13.2 °F 1018.5 in Calm     67 % 0.0 in 7.0 W/m2 BKN
07:23 19.4 °F 13.2 °F 1018.5 in Calm     67 % 0.0 in 11.0 W/m2 BKN
07:28 19.4 °F 13.1 °F 1018.5 in WSW 1.9 mph 1.9 mph 67 % 0.0 in 12.0 W/m2 BKN
07:33 19.4 °F 13.1 °F 1018.5 in WSW 6.4 mph 6.4 mph 67 % 0.0 in 18.0 W/m2 BKN
07:38 19.4 °F 13.1 °F 1018.5 in Calm     67 % 0.0 in 21.0 W/m2 BKN
07:43 19.4 °F 13.1 °F 1018.5 in WSW 5.6 mph 5.6 mph 67 % 0.0 in 25.0 W/m2 BKN
07:48 19.4 °F 13.3 °F 1018.5 in SW 5.6 mph 5.6 mph 68 % 0.0 in 32.0 W/m2 BKN
07:53 19.4 °F 13.2 °F 1018.8 in Calm     67 % 0.0 in 35.0 W/m2 BKN
07:58 19.5 °F 13.2 °F 1018.5 in SW 1.6 mph 1.6 mph 67 % 0.0 in 51.0 W/m2 SCT
08:03 19.6 °F 13.3 °F 1018.8 in Calm     67 % 0.0 in 60.0 W/m2 SCT
08:08 19.7 °F 13.4 °F 1018.8 in SW 3.7 mph   67 % 0.0 in 91.0 W/m2 FEW
08:13 19.9 °F 13.4 °F 1018.5 in SW 7.4 mph 7.4 mph 66 % 0.0 in 109.0 W/m2 CLR
08:18 20.2 °F 13.6 °F 1018.8 in SW 3.7 mph 3.7 mph 66 % 0.0 in 118.0 W/m2 CLR
08:23 20.4 °F 13.6 °F 1018.8 in WSW 5.6 mph 5.6 mph 65 % 0.0 in 141.0 W/m2 CLR
08:28 20.6 °F 13.6 °F 1018.8 in Calm     64 % 0.0 in 162.0 W/m2 CLR
08:33 20.8 °F 13.8 °F 1018.8 in West 12.9 mph 12.9 mph 64 % 0.0 in 179.0 W/m2 CLR
08:38 21.1 °F 13.7 °F 1018.8 in West 9.3 mph 9.3 mph 63 % 0.0 in 121.0 W/m2 CLR
08:43 21.1 °F 13.6 °F 1018.8 in West 11.3 mph 11.3 mph 62 % 0.0 in 95.0 W/m2 CLR
08:45 21.1 °F 13.5 °F 1018.8 in WNW 13.0 mph 13.0 mph 62 % 0.0 in 91.0 W/m2 CLR
08:50 21.1 °F 13.5 °F 1019.2 in West 7.4 mph 7.4 mph 62 % 0.0 in 139.0 W/m2 CLR
08:55 21.1 °F 13.5 °F 1018.8 in WNW 14.5 mph 14.5 mph 62 % 0.0 in 153.0 W/m2 CLR
09:00 21.1 °F 13.6 °F 1018.8 in WNW 7.4 mph 7.4 mph 62 % 0.0 in 142.0 W/m2 CLR
09:05 21.3 °F 13.7 °F 1019.2 in West 13.0 mph 13.0 mph 62 % 0.0 in 313.0 W/m2 CLR
09:10 21.5 °F 13.7 °F 1019.2 in WNW 12.9 mph 12.9 mph 61 % 0.0 in 330.0 W/m2 CLR
09:15 21.7 °F 13.6 °F 1019.2 in West 18.5 mph 18.5 mph 60 % 0.0 in 165.0 W/m2 CLR
09:20 21.7 °F 13.6 °F 1019.2 in WNW 24.1 mph 24.1 mph 60 % 0.0 in 141.0 W/m2 CLR
09:25 21.7 °F 13.6 °F 1019.2 in West 16.7 mph 16.7 mph 60 % 0.0 in 211.0 W/m2 CLR
09:30 21.7 °F 13.6 °F 1019.2 in West 12.9 mph 12.9 mph 60 % 0.0 in 281.0 W/m2 CLR
09:35 21.8 °F 13.7 °F 1019.2 in West 14.8 mph 14.8 mph 60 % 0.0 in 160.0 W/m2 CLR
09:40 21.8 °F 13.7 °F 1019.2 in WNW 7.4 mph 7.7 mph 60 % 0.0 in 318.0 W/m2 CLR
09:45 21.9 °F 13.5 °F 1019.2 in WNW 24.1 mph 24.1 mph 59 % 0.0 in 302.0 W/m2 CLR
09:50 21.9 °F 13.6 °F 1019.2 in NW 18.5 mph 18.5 mph 59 % 0.0 in 404.0 W/m2 CLR
09:55 22.2 °F 13.8 °F 1019.2 in WNW 19.3 mph 19.3 mph 59 % 0.0 in 422.0 W/m2 CLR
10:00 22.3 °F 13.6 °F 1019.2 in West 19.3 mph 19.3 mph 58 % 0.0 in 436.0 W/m2 CLR
10:05 22.2 °F 13.8 °F 1019.2 in West 11.3 mph 11.3 mph 59 % 0.0 in 299.0 W/m2 CLR
10:10 22.3 °F 13.6 °F 1019.2 in NW 13.0 mph 13.0 mph 58 % 0.0 in 241.0 W/m2 CLR
10:15 22.6 °F 13.9 °F 1019.2 in WNW 24.1 mph 24.1 mph 58 % 0.0 in 483.0 W/m2 CLR
10:20 22.7 °F 14.0 °F 1019.2 in WNW 18.5 mph 18.5 mph 58 % 0.0 in 503.0 W/m2 CLR
10:25 22.8 °F 13.9 °F 1019.2 in WNW 18.5 mph 18.5 mph 57 % 0.0 in 508.0 W/m2 CLR
10:30 22.8 °F 13.6 °F 1019.2 in WNW 24.1 mph 24.1 mph 56 % 0.0 in 503.0 W/m2 CLR
10:35 23.0 °F 13.7 °F 1019.2 in West 19.3 mph 19.3 mph 56 % 0.0 in 531.0 W/m2 CLR
10:40 23.2 °F 13.9 °F 1019.2 in NW 24.1 mph 24.1 mph 56 % 0.0 in 543.0 W/m2 CLR
10:45 23.4 °F 13.8 °F 1019.2 in NNW 13.0 mph 13.0 mph 55 % 0.0 in 545.0 W/m2 CLR
10:50 23.6 °F 13.7 °F 1019.2 in NW 20.4 mph 20.4 mph 54 % 0.0 in 564.0 W/m2 CLR
10:55 23.8 °F 13.9 °F 1019.2 in NW 22.2 mph 22.2 mph 54 % 0.0 in 575.0 W/m2 CLR
11:00 23.7 °F 13.8 °F 1019.2 in WNW 24.1 mph 24.1 mph 54 % 0.0 in 624.0 W/m2 CLR
11:05 23.6 °F 13.4 °F 1019.2 in WNW 14.8 mph 14.8 mph 53 % 0.0 in 619.0 W/m2 CLR
11:10 23.6 °F 13.8 °F 1019.2 in West 9.7 mph 9.7 mph 54 % 0.0 in 629.0 W/m2 CLR
11:15 24.1 °F 13.9 °F 1019.2 in WNW 18.5 mph   53 % 0.0 in 635.0 W/m2 CLR
11:20 24.3 °F 13.8 °F 1019.5 in NNW 18.5 mph 18.5 mph 52 % 0.0 in 652.0 W/m2 CLR
11:25 24.5 °F 14.0 °F 1019.5 in West 11.3 mph 11.3 mph 52 % 0.0 in 664.0 W/m2 CLR
11:30 24.6 °F 13.7 °F 1019.5 in West 22.2 mph 22.2 mph 51 % 0.0 in 670.0 W/m2 CLR
11:35 24.4 °F 13.9 °F 1019.5 in SSW 9.3 mph 9.3 mph 52 % 0.0 in 673.0 W/m2 CLR
11:40 24.6 °F 13.7 °F 1019.2 in SW 14.8 mph 14.8 mph 51 % 0.0 in 677.0 W/m2 CLR
11:45 24.4 °F 13.7 °F 1019.2 in West 14.8 mph 14.8 mph 51 % 0.0 in 694.0 W/m2 CLR
11:50 24.8 °F 13.9 °F 1019.2 in NNW 6.4 mph 6.4 mph 51 % 0.0 in 700.0 W/m2 CLR
11:55 25.2 °F 13.7 °F 1019.2 in WNW 20.4 mph 20.4 mph 49 % 0.0 in 714.0 W/m2 CLR
12:00 25.6 °F 13.8 °F 1019.2 in WNW 16.1 mph 16.1 mph 48 % 0.0 in 728.0 W/m2 CLR
12:05 25.5 °F 13.7 °F 1019.2 in Calm     48 % 0.0 in 749.0 W/m2 CLR
12:10 25.4 °F 13.6 °F 1019.2 in NW 20.4 mph 20.4 mph 48 % 0.0 in 715.0 W/m2 CLR
12:15 25.4 °F 13.6 °F 1019.2 in West 14.8 mph 14.8 mph 48 % 0.0 in 786.0 W/m2 CLR
12:20 25.3 °F 13.6 °F 1019.2 in WNW 14.8 mph 14.8 mph 48 % 0.0 in 729.0 W/m2 CLR
12:25 25.9 °F 13.4 °F 1019.2 in WNW 24.1 mph 24.1 mph 46 % 0.0 in 740.0 W/m2 CLR
12:30 25.8 °F 13.6 °F 1019.2 in NW 18.5 mph 18.5 mph 47 % 0.0 in 689.0 W/m2 CLR
12:35 25.9 °F 13.7 °F 1018.8 in NNW 20.4 mph 20.4 mph 47 % 0.0 in 789.0 W/m2 CLR
12:40 26.1 °F 13.6 °F 1018.8 in WNW 18.5 mph 18.5 mph 46 % 0.0 in 759.0 W/m2 CLR
12:45 26.1 °F 13.9 °F 1018.5 in NNW 13.0 mph 13.0 mph 47 % 0.0 in 763.0 W/m2 CLR
12:50 26.3 °F 13.1 °F 1018.8 in NW 13.0 mph 13.0 mph 44 % 0.0 in 898.0 W/m2 CLR
12:55 26.4 °F 13.5 °F 1018.5 in West 13.0 mph 13.0 mph 45 % 0.0 in 798.0 W/m2 CLR
12:56 26.5 °F 13.6 °F 1018.5 in NW 18.5 mph 18.5 mph 45 % 0.0 in 561.0 W/m2 CLR
13:01 26.5 °F 13.6 °F 1018.5 in WNW 18.5 mph 18.5 mph 45 % 0.0 in 633.0 W/m2 CLR
13:06 26.5 °F 13.3 °F 1018.5 in NW 20.9 mph 20.9 mph 44 % 0.0 in 837.0 W/m2 CLR
13:11 26.7 °F 13.1 °F 1018.5 in West 9.3 mph 9.3 mph 43 % 0.0 in 700.0 W/m2 CLR
13:16 26.9 °F 13.3 °F 1018.5 in WNW 17.7 mph 17.7 mph 43 % 0.0 in 849.0 W/m2 CLR
13:21 27.2 °F 13.2 °F 1018.5 in NNW 18.5 mph 18.5 mph 42 % 0.0 in 844.0 W/m2 CLR
13:26 27.5 °F 13.1 °F 1018.5 in NW 14.8 mph 14.8 mph 41 % 0.0 in 842.0 W/m2 CLR
13:31 27.4 °F 13.3 °F 1018.5 in NNW 5.6 mph 5.6 mph 42 % 0.0 in 844.0 W/m2 CLR
13:36 27.4 °F 13.0 °F 1018.5 in NW 18.5 mph 18.5 mph 41 % 0.0 in 844.0 W/m2 CLR
13:41 27.7 °F 13.2 °F 1018.5 in NW 18.5 mph 18.5 mph 41 % 0.0 in 844.0 W/m2 CLR
13:46 27.9 °F 13.1 °F 1018.5 in NNW 16.7 mph 16.7 mph 40 % 0.0 in 846.0 W/m2 CLR
13:51 27.7 °F 12.9 °F 1018.5 in North 13.0 mph 13.0 mph 40 % 0.0 in 849.0 W/m2 CLR
13:53 27.8 °F 13.0 °F 1018.2 in NW 18.5 mph 18.5 mph 40 % 0.0 in 847.0 W/m2 CLR
13:58 28.1 °F 12.8 °F 1018.5 in WNW 9.3 mph 9.3 mph 39 % 0.0 in 844.0 W/m2 CLR
14:03 28.2 °F 12.9 °F 1018.2 in WNW 17.7 mph 17.7 mph 39 % 0.0 in 831.0 W/m2 CLR
14:08 28.3 °F 12.6 °F 1018.2 in NW 20.9 mph 20.9 mph 38 % 0.0 in 844.0 W/m2 CLR
14:13 28.4 °F 12.7 °F 1018.2 in NNW 14.8 mph 14.8 mph 38 % 0.0 in 856.0 W/m2 CLR
14:18 28.4 °F 13.1 °F 1017.8 in North 3.2 mph 3.2 mph 39 % 0.0 in 837.0 W/m2 CLR
14:23 28.7 °F 13.3 °F 1017.8 in North 18.5 mph 18.5 mph 39 % 0.0 in 842.0 W/m2 CLR
14:28 28.8 °F 13.1 °F 1017.8 in NW 18.5 mph 18.5 mph 38 % 0.0 in 875.0 W/m2 CLR
14:33 29.1 °F 12.9 °F 1018.2 in NNE 14.5 mph 14.5 mph 37 % 0.0 in 872.0 W/m2 CLR
14:38 29.3 °F 13.1 °F 1017.8 in North 9.7 mph 9.7 mph 37 % 0.0 in 874.0 W/m2 CLR
14:43 29.5 °F 13.3 °F 1017.8 in ENE 5.6 mph 5.6 mph 37 % 0.0 in 868.0 W/m2 CLR
14:48 29.7 °F 13.1 °F 1017.8 in North 18.5 mph 18.5 mph 36 % 0.0 in 944.0 W/m2 CLR
14:53 30.0 °F 13.3 °F 1017.8 in North 14.8 mph 14.8 mph 36 % 0.0 in 932.0 W/m2 CLR
14:58 29.8 °F 12.7 °F 1017.8 in WNW 9.3 mph 9.3 mph 35 % 0.0 in 459.0 W/m2 CLR
15:03 29.4 °F 12.4 °F 1017.8 in WNW 3.7 mph 3.7 mph 35 % 0.0 in 564.0 W/m2 CLR
15:08 29.7 °F 12.6 °F 1017.8 in Calm     35 % 0.0 in 838.0 W/m2 CLR
15:13 30.1 °F 12.5 °F 1017.5 in West 5.6 mph 5.6 mph 34 % 0.0 in 795.0 W/m2 CLR
15:18 30.2 °F 13.1 °F 1017.5 in Calm     35 % 0.0 in 803.0 W/m2 CLR
15:23 30.5 °F 12.9 °F 1017.5 in NW 5.6 mph 5.6 mph 34 % 0.0 in 812.0 W/m2 CLR
15:28 30.6 °F 12.9 °F 1017.5 in Calm     34 % 0.0 in 717.0 W/m2 CLR
15:33 30.6 °F 12.9 °F 1017.5 in North 18.5 mph 18.5 mph 34 % 0.0 in 703.0 W/m2 CLR
15:38 30.2 °F 12.6 °F 1017.2 in NW 11.3 mph 11.3 mph 34 % 0.0 in 675.0 W/m2 CLR
15:43 30.1 °F 12.9 °F 1017.2 in Calm     35 % 0.0 in 784.0 W/m2 CLR
15:48 30.4 °F 12.8 °F 1017.2 in NNW 7.4 mph 7.4 mph 34 % 0.0 in 770.0 W/m2 CLR
15:53 30.4 °F 12.8 °F 1017.2 in Calm     34 % 0.0 in 772.0 W/m2 CLR
15:58 30.7 °F 12.6 °F 1017.2 in Calm     33 % 0.0 in 717.0 W/m2 CLR
16:03 30.9 °F 12.8 °F 1017.2 in North 4.8 mph 4.8 mph 33 % 0.0 in 661.0 W/m2 CLR
16:08 30.9 °F 12.7 °F 1016.8 in SSW 5.6 mph 5.6 mph 33 % 0.0 in 682.0 W/m2 CLR
16:13 30.8 °F 12.7 °F 1016.8 in Calm     33 % 0.0 in 656.0 W/m2 CLR
16:18 31.1 °F 12.9 °F 1016.8 in Calm     33 % 0.0 in 649.0 W/m2 CLR
16:23 31.3 °F 13.1 °F 1016.8 in NNW 18.5 mph 18.5 mph 33 % 0.0 in 573.0 W/m2 CLR
16:28 31.4 °F 12.8 °F 1016.8 in NNE 9.3 mph 9.3 mph 32 % 0.0 in 659.0 W/m2 CLR
16:33 31.2 °F 12.5 °F 1016.8 in Calm     32 % 0.0 in 643.0 W/m2 CLR
16:38 31.0 °F 12.8 °F 1016.5 in ESE 5.6 mph 5.6 mph 33 % 0.0 in 650.0 W/m2 CLR
16:43 31.1 °F 12.4 °F 1016.5 in ENE 7.4 mph 7.4 mph 32 % 0.0 in 617.0 W/m2 CLR
16:48 31.2 °F 12.5 °F 1016.5 in Calm     32 % 0.0 in 519.0 W/m2 CLR
16:53 31.1 °F 12.4 °F 1016.5 in Calm     32 % 0.0 in 536.0 W/m2 CLR
16:58 31.2 °F 12.5 °F 1016.5 in Calm     32 % 0.0 in 563.0 W/m2 CLR
17:03 31.2 °F 12.6 °F 1016.5 in NNE 11.1 mph 11.1 mph 32 % 0.0 in 564.0 W/m2 CLR
17:08 31.3 °F 12.6 °F 1016.5 in NNE 5.6 mph   32 % 0.0 in 483.0 W/m2 CLR
17:13 31.4 °F 12.7 °F 1016.5 in ENE 7.4 mph 7.4 mph 32 % 0.0 in 610.0 W/m2 CLR
17:18 31.6 °F 12.8 °F 1016.5 in East 5.6 mph 5.6 mph 32 % 0.0 in 577.0 W/m2 CLR
17:23 31.6 °F 12.4 °F 1016.5 in ENE 7.4 mph 7.4 mph 31 % 0.0 in 592.0 W/m2 CLR
17:28 31.4 °F 12.2 °F 1016.5 in Calm     31 % 0.0 in 512.0 W/m2 CLR
17:29 31.4 °F 12.7 °F 1016.5 in Calm     32 % 0.0 in 480.0 W/m2 CLR
17:34 31.6 °F 12.4 °F 1016.5 in ENE 5.6 mph 5.6 mph 31 % 0.0 in 531.0 W/m2 CLR
17:39 31.8 °F 12.6 °F 1016.1 in North 1.9 mph 1.9 mph 31 % 0.0 in 475.0 W/m2 CLR
17:44 31.9 °F 12.7 °F 1016.1 in North 9.3 mph 9.3 mph 31 % 0.0 in 541.0 W/m2 CLR
18:16 31.9 °F 12.7 °F 977.9 in Calm     31 % 0.0 in 0.0 W/m2 OVC
18:25 31.9 °F 12.7 °F 977.9 in Calm     31 % 0.0 in 0.0 W/m2 OVC
18:30 31.9 °F 12.7 °F 977.9 in Calm     31 % 0.0 in 0.0 W/m2 OVC
18:35 31.9 °F 12.7 °F 977.9 in Calm     31 % 0.0 in 0.0 W/m2 OVC
18:40 31.9 °F 12.7 °F 977.9 in Calm     31 % 0.0 in 0.0 W/m2 OVC
18:45 31.9 °F 12.7 °F 977.9 in Calm     31 % 0.0 in 0.0 W/m2 OVC
18:50 31.9 °F 12.7 °F 977.9 in Calm     31 % 0.0 in 0.0 W/m2 OVC
18:55 31.9 °F 12.7 °F 977.9 in Calm     31 % 0.0 in 0.0 W/m2 OVC
19:00 31.9 °F 12.7 °F 977.9 in Calm     31 % 0.0 in 0.0 W/m2 OVC
19:05 31.9 °F 12.7 °F 977.5 in Calm     31 % 0.0 in 0.0 W/m2 OVC
19:10 31.9 °F 12.7 °F 977.5 in Calm     31 % 0.0 in 0.0 W/m2 OVC
19:15 31.9 °F 12.7 °F 977.9 in Calm     31 % 0.0 in 0.0 W/m2 OVC
19:20 31.9 °F 12.7 °F 977.9 in Calm     31 % 0.0 in 0.0 W/m2 OVC
19:25 31.9 °F 12.7 °F 977.5 in Calm     31 % 0.0 in 0.0 W/m2 OVC
19:30 31.9 °F 12.7 °F 977.9 in Calm     31 % 0.0 in 0.0 W/m2 OVC
19:35 31.9 °F 12.7 °F 977.9 in Calm     31 % 0.0 in 0.0 W/m2 OVC
Lo Temps de Massalio
Compliments of Weather Underground - 1 mb